Airfield :







YOU CAN JOIN US ON...

 
LOGIN :

Register | Disclaimer

   EN    FR    IT 

 









Legend :    VFR   Marginal VFR   IFR   Intensive IFR   Very Intensive IFR
Visi :
Ceiling :
>= 8 km
>= 3000ft
5 to 8 km
1000 to 3000 ft
1500m to 5 km
500 to 1000 ft
800 to 1500m
200 to 500 ft
< 800m
< 200 ft
Symbols :   Thunderstorms  Fog  Heavy snow  Heavy precipitations  Wind > 20 kt






- Airport Elevation : 36 ft
- IATA code : PTP


TFFR - Le Raizet

CURRENT METAR :
  • 082300Z AUTO 15003KT CAVOK 24/22 Q1015 TEMPO 3000 SHRA BKN018TCU BECMG 09010KT

EXPIRED METARs :
  • 082230Z AUTO 11003KT CAVOK 25/22 Q1014 TEMPO 3000 SHRA BKN018TCU
  • 082200Z AUTO 12005KT CAVOK 25/22 Q1014 TEMPO 3000 SHRA BKN018TCU
  • 082130Z AUTO 09005KT CAVOK 26/22 Q1014 TEMPO 3000 SHRA BKN018TCU
  • 082100Z AUTO 08008KT 9999 FEW031 26/23 Q1014 TEMPO 3000 SHRA BKN018TCU
  • 082030Z AUTO 09008KT 9999 FEW036 27/23 Q1014 TEMPO 3000 SHRA BKN018TCU

TAF TAF TFFR
Valid from the 08 at 18:00 until the 09 at 18:00 UTC


081600Z 0818/0918 09010KT 9999 SCT030 SCT040
PROB30
TEMPO 0818/0902 3000 SHRA BKN018TCU
TTZP FIR / North America



MET'MAP, your aeronautical weather chart ! - Copyright ORBIFLY December 2007 - Disclaimer

ORBIFLY MET'MAP TEAM :

Programming & Development : Alexandra Zaïnal
Concept & original design : Baudouin d'Aumeries
Assistance for programming : Marc-Olivier Méhu
Technical & hardware support : Manuel Goepfert

Contact : metmap@orbifly.com




SOURCES & CREDITS :

   NOAA